createdAt,value
2018-05-16T00:01:27.408Z,12.23
2018-05-16T00:03:55.739Z,12.27
2018-05-16T00:06:23.816Z,11.63
2018-05-16T00:08:51.371Z,13.23
2018-05-16T00:11:18.927Z,11.57
2018-05-16T00:13:46.520Z,12.47
2018-05-16T00:16:16.545Z,9.97
2018-05-16T00:18:44.109Z,10.87
2018-05-16T00:21:12.455Z,10.70
2018-05-16T00:23:40.004Z,12.43
2018-05-16T00:26:07.579Z,13.62
2018-05-16T00:28:35.863Z,12.97
2018-05-16T00:31:03.428Z,13.13
2018-05-16T00:33:30.986Z,13.17
2018-05-16T00:35:58.570Z,12.43
2018-05-16T00:38:26.898Z,15.47
2018-05-16T00:40:54.449Z,13.50
2018-05-16T00:43:22.457Z,12.20
2018-05-16T00:45:50.023Z,14.63
2018-05-16T00:48:17.571Z,15.60
2018-05-16T00:51:22.502Z,11.67
2018-05-16T00:53:50.063Z,13.17
2018-05-16T00:56:17.631Z,10.73
2018-05-16T00:58:45.221Z,12.47
2018-05-16T01:01:12.797Z,11.50
2018-05-16T01:03:41.108Z,12.63
2018-05-16T01:06:08.710Z,14.70
2018-05-16T01:08:36.265Z,11.57
2018-05-16T01:11:03.826Z,12.63
2018-05-16T01:13:31.455Z,12.63
2018-05-16T01:15:59.151Z,12.27
2018-05-16T01:18:26.716Z,12.20
2018-05-16T01:20:54.305Z,12.37
2018-05-16T01:23:22.636Z,15.13
2018-05-16T01:25:50.205Z,11.60
2018-05-16T01:28:17.800Z,11.10
2018-05-16T01:30:46.133Z,12.83
2018-05-16T01:33:14.010Z,12.70
2018-05-16T01:35:41.627Z,15.60
2018-05-16T01:38:09.983Z,13.73
2018-05-16T01:40:37.533Z,13.80
2018-05-16T01:43:05.132Z,13.47
2018-05-16T01:45:33.459Z,16.98
2018-05-16T01:48:01.048Z,17.77
2018-05-16T01:50:28.618Z,16.37
2018-05-16T01:52:56.953Z,14.98
2018-05-16T01:55:24.518Z,14.47
2018-05-16T01:57:52.121Z,12.63
2018-05-16T02:00:20.454Z,13.97
2018-05-16T02:02:48.016Z,16.87
2018-05-16T02:05:15.610Z,15.07
2018-05-16T02:07:43.201Z,19.40
2018-05-16T02:10:10.766Z,15.20
2018-05-16T02:12:38.361Z,18.37
2018-05-16T02:15:05.919Z,17.40
2018-05-16T02:17:33.477Z,16.73
2018-05-16T02:20:01.117Z,19.50
2018-05-16T02:22:28.648Z,16.70
2018-05-16T02:24:56.973Z,14.40
2018-05-16T02:27:24.563Z,13.67
2018-05-16T02:29:52.126Z,14.13
2018-05-16T02:32:19.696Z,13.60
2018-05-16T02:34:47.282Z,16.87
2018-05-16T02:37:15.664Z,16.27
2018-05-16T02:39:43.171Z,15.77
2018-05-16T02:42:10.779Z,15.48
2018-05-16T02:44:39.113Z,13.83
2018-05-16T02:47:06.672Z,14.63
2018-05-16T02:49:34.285Z,12.30
2018-05-16T02:52:01.844Z,14.77
2018-05-16T02:54:29.519Z,14.60
2018-05-16T02:56:57.765Z,13.70
2018-05-16T02:59:25.328Z,12.30
2018-05-16T03:01:52.885Z,12.27
2018-05-16T03:04:20.499Z,15.43
2018-05-16T03:06:48.054Z,13.57
2018-05-16T03:09:15.607Z,13.83
2018-05-16T03:11:43.256Z,13.60
2018-05-16T03:14:10.767Z,13.10
2018-05-16T03:16:38.322Z,13.70
2018-05-16T03:19:05.907Z,14.40
2018-05-16T03:21:33.461Z,11.90
2018-05-16T03:24:01.023Z,12.70
2018-05-16T03:26:28.632Z,16.50
2018-05-16T03:28:56.209Z,13.70
2018-05-16T03:31:23.766Z,15.87
2018-05-16T03:33:51.382Z,14.63
2018-05-16T03:36:18.940Z,16.13
2018-05-16T03:38:46.507Z,16.47
2018-05-16T03:41:14.105Z,16.40
2018-05-16T03:43:41.668Z,17.70
2018-05-16T03:46:09.226Z,17.83
2018-05-16T03:48:36.847Z,14.70
2018-05-16T03:51:04.429Z,16.95
2018-05-16T03:53:32.781Z,16.77
2018-05-16T03:56:00.330Z,15.67
2018-05-16T03:59:04.930Z,16.93
2018-05-16T04:02:09.778Z,15.03
2018-05-16T04:04:37.367Z,13.37
2018-05-16T04:07:04.934Z,16.97
2018-05-16T04:09:32.965Z,17.35
2018-05-16T04:12:00.525Z,18.05
2018-05-16T04:14:28.083Z,16.67
2018-05-16T04:16:55.679Z,20.33
2018-05-16T04:19:23.230Z,22.17
2018-05-16T04:21:50.785Z,19.50
2018-05-16T04:24:18.380Z,19.70
2018-05-16T04:26:45.956Z,19.90
2018-05-16T04:29:14.275Z,17.47
2018-05-16T04:31:41.898Z,19.63
2018-05-16T04:34:09.446Z,22.17
2018-05-16T04:36:37.014Z,22.17
2018-05-16T04:39:04.606Z,20.07
2018-05-16T04:41:32.175Z,22.00
2018-05-16T04:43:59.738Z,21.67
2018-05-16T04:46:28.272Z,25.47
2018-05-16T04:48:55.837Z,20.70
2018-05-16T04:51:23.396Z,20.37
2018-05-16T04:53:52.971Z,21.00
2018-05-16T04:56:20.528Z,23.15
2018-05-16T04:58:48.090Z,19.37
2018-05-16T05:01:15.675Z,18.97
2018-05-16T05:03:43.225Z,21.97
2018-05-16T05:06:10.832Z,19.97
2018-05-16T05:08:48.684Z,20.23
2018-05-16T05:11:19.224Z,21.07
2018-05-16T05:13:46.975Z,20.53
2018-05-16T05:16:14.732Z,25.40
2018-05-16T05:18:42.416Z,29.33
2018-05-16T05:21:10.178Z,22.00
2018-05-16T05:23:37.741Z,27.13
2018-05-16T05:26:05.297Z,23.23
2018-05-16T05:28:33.369Z,31.60
2018-05-16T05:31:00.930Z,29.67
2018-05-16T05:33:28.494Z,26.30
2018-05-16T05:35:56.670Z,25.13
2018-05-16T05:38:24.232Z,24.10
2018-05-16T05:40:51.788Z,23.67
2018-05-16T05:43:20.145Z,26.40
2018-05-16T05:45:48.460Z,25.90
2018-05-16T05:48:16.023Z,24.60
2018-05-16T05:50:43.650Z,25.17
2018-05-16T05:53:11.228Z,25.57
2018-05-16T05:55:38.801Z,24.30
2018-05-16T05:58:07.270Z,26.20
2018-05-16T06:00:34.826Z,23.00
2018-05-16T06:03:02.388Z,23.53
2018-05-16T06:05:31.088Z,22.97
2018-05-16T06:07:58.557Z,25.23
2018-05-16T06:10:26.117Z,23.10
2018-05-16T06:12:55.423Z,26.20
2018-05-16T06:15:22.976Z,23.73
2018-05-16T06:17:50.649Z,25.65
2018-05-16T06:20:18.289Z,22.37
2018-05-16T06:22:45.860Z,24.77
2018-05-16T06:25:13.432Z,23.80
2018-05-16T06:27:41.072Z,22.03
2018-05-16T06:30:08.628Z,22.60
2018-05-16T06:32:36.200Z,22.93
2018-05-16T06:35:04.289Z,25.13
2018-05-16T06:37:31.843Z,25.10
2018-05-16T06:39:59.409Z,23.80
2018-05-16T06:42:27.040Z,23.27
2018-05-16T06:44:54.637Z,25.30
2018-05-16T06:47:22.167Z,28.70
2018-05-16T06:49:50.708Z,26.63
2018-05-16T06:52:19.027Z,25.77
2018-05-16T06:54:46.584Z,31.20
2018-05-16T06:57:14.193Z,28.87
2018-05-16T06:59:41.750Z,31.63
2018-05-16T07:02:09.329Z,30.77
2018-05-16T07:04:37.709Z,33.03
2018-05-16T07:07:06.038Z,35.05
2018-05-16T07:09:33.602Z,31.27
2018-05-16T07:12:01.616Z,33.73
2018-05-16T07:14:29.137Z,32.93
2018-05-16T07:16:56.687Z,29.77
2018-05-16T07:19:25.307Z,29.77
2018-05-16T07:21:52.867Z,34.70
2018-05-16T07:24:20.423Z,35.37
2018-05-16T07:26:48.043Z,29.83
2018-05-16T07:29:15.729Z,32.03
2018-05-16T07:31:43.170Z,32.83
2018-05-16T07:34:11.952Z,32.60
2018-05-16T07:36:39.510Z,29.73
2018-05-16T07:39:07.068Z,29.57
2018-05-16T07:41:34.710Z,28.40
2018-05-16T07:44:02.268Z,28.77
2018-05-16T07:46:29.822Z,26.83
2018-05-16T07:48:57.466Z,25.27
2018-05-16T07:51:25.037Z,25.15
2018-05-16T07:53:52.604Z,23.53
2018-05-16T07:56:21.121Z,26.13
2018-05-16T07:58:49.463Z,22.70
2018-05-16T08:01:17.054Z,17.80
2018-05-16T08:03:46.328Z,21.30
2018-05-16T08:06:14.271Z,17.07
2018-05-16T08:08:41.854Z,17.30
2018-05-16T08:11:09.472Z,18.13
2018-05-16T08:13:37.032Z,16.95
2018-05-16T08:16:04.585Z,19.37
2018-05-16T08:18:32.202Z,14.43
2018-05-16T08:20:59.789Z,14.03
2018-05-16T08:23:28.123Z,14.87
2018-05-16T08:25:55.731Z,16.07
2018-05-16T08:28:24.058Z,11.93
2018-05-16T08:30:51.616Z,10.97
2018-05-16T08:33:20.114Z,11.00
2018-05-16T08:35:47.681Z,11.70
2018-05-16T08:38:15.316Z,11.70
2018-05-16T08:40:42.940Z,8.10
2018-05-16T08:43:10.426Z,6.40
2018-05-16T08:45:37.983Z,4.67
2018-05-16T08:48:05.590Z,5.77
2018-05-16T08:50:34.347Z,3.50
2018-05-16T08:53:01.933Z,4.30
2018-05-16T08:55:29.573Z,3.70
2018-05-16T08:57:57.147Z,3.90
2018-05-16T09:00:24.724Z,4.47
2018-05-16T09:02:52.362Z,6.73
2018-05-16T09:05:20.657Z,3.83
2018-05-16T09:07:48.209Z,3.00
2018-05-16T09:10:15.847Z,3.40
2018-05-16T09:12:43.405Z,2.87
2018-05-16T09:15:10.978Z,3.80
2018-05-16T09:17:38.572Z,3.00
2018-05-16T09:20:06.234Z,2.40
2018-05-16T09:22:33.747Z,4.67
2018-05-16T09:25:01.361Z,3.00
2018-05-16T09:27:28.915Z,3.73
2018-05-16T09:29:56.476Z,3.93
2018-05-16T09:32:24.080Z,4.82
2018-05-16T09:34:52.416Z,3.30
2018-05-16T09:37:19.964Z,2.77
2018-05-16T09:39:47.613Z,2.27
2018-05-16T09:42:15.181Z,2.23
2018-05-16T09:44:42.733Z,2.47
2018-05-16T09:47:10.345Z,1.73
2018-05-16T09:49:37.904Z,3.40
2018-05-16T09:52:05.462Z,1.87
2018-05-16T09:54:33.092Z,3.17
2018-05-16T09:57:00.663Z,3.37
2018-05-16T09:59:28.203Z,3.53
2018-05-16T10:01:56.198Z,2.23
2018-05-16T10:04:23.768Z,2.67
2018-05-16T10:06:51.329Z,5.00
2018-05-16T10:09:18.936Z,2.55
2018-05-16T10:11:46.505Z,2.78
2018-05-16T10:14:14.065Z,1.97
2018-05-16T10:16:41.678Z,2.60
2018-05-16T10:19:09.237Z,4.30
2018-05-16T10:21:36.836Z,2.57
2018-05-16T10:24:04.429Z,3.87
2018-05-16T10:26:31.991Z,2.43
2018-05-16T10:28:59.548Z,2.40
2018-05-16T10:31:27.203Z,5.97
2018-05-16T10:33:54.765Z,2.53
2018-05-16T10:36:22.325Z,2.23
2018-05-16T10:38:49.996Z,3.03
2018-05-16T10:41:17.606Z,2.03
2018-05-16T10:43:45.110Z,2.30
2018-05-16T10:46:13.214Z,5.33
2018-05-16T10:48:40.780Z,2.43
2018-05-16T10:51:08.346Z,2.83
2018-05-16T10:53:35.956Z,2.30
2018-05-16T10:56:04.293Z,2.47
2018-05-16T10:58:33.338Z,2.53
2018-05-16T11:01:01.703Z,2.47
2018-05-16T11:03:29.256Z,4.07
2018-05-16T11:05:56.863Z,2.43
2018-05-16T11:08:24.473Z,4.40
2018-05-16T11:10:52.031Z,3.63
2018-05-16T11:13:19.864Z,3.73
2018-05-16T11:15:47.474Z,3.70
2018-05-16T11:18:15.834Z,4.07
2018-05-16T11:20:43.339Z,2.70
2018-05-16T11:23:10.947Z,3.73
2018-05-16T11:25:38.505Z,2.50
2018-05-16T11:28:06.081Z,3.83
2018-05-16T11:30:34.634Z,3.30
2018-05-16T11:33:02.207Z,2.80
2018-05-16T11:35:29.771Z,4.17
2018-05-16T11:37:58.590Z,3.87
2018-05-16T11:40:26.920Z,5.10
2018-05-16T11:42:54.792Z,3.23
2018-05-16T11:45:22.083Z,3.97
2018-05-16T11:47:49.657Z,3.60
2018-05-16T11:50:17.987Z,4.47
2018-05-16T11:52:45.611Z,3.93
2018-05-16T11:55:13.935Z,3.70
2018-05-16T11:57:41.507Z,4.23
2018-05-16T12:00:10.075Z,4.30
2018-05-16T12:02:37.642Z,5.47
2018-05-16T12:05:05.202Z,4.50
2018-05-16T12:07:32.809Z,4.63
2018-05-16T12:10:01.134Z,5.10
2018-05-16T12:12:28.702Z,5.57
2018-05-16T12:14:56.419Z,5.40
2018-05-16T12:17:24.646Z,5.33
2018-05-16T12:19:52.214Z,4.53
2018-05-16T12:22:20.696Z,7.00
2018-05-16T12:24:48.251Z,5.47
2018-05-16T12:27:15.812Z,6.13
2018-05-16T12:29:44.333Z,8.53
2018-05-16T12:32:11.856Z,8.53
2018-05-16T12:34:39.431Z,7.93
2018-05-16T12:37:07.051Z,6.87
2018-05-16T12:39:34.614Z,5.10
2018-05-16T12:42:02.179Z,7.87
2018-05-16T12:44:29.786Z,10.17
2018-05-16T12:46:57.338Z,6.07
2018-05-16T12:49:24.953Z,6.57
2018-05-16T12:51:52.980Z,6.07
2018-05-16T12:54:20.532Z,7.43
2018-05-16T12:56:48.090Z,7.53
2018-05-16T12:59:15.786Z,8.53
2018-05-16T13:01:44.104Z,8.10
2018-05-16T13:04:11.669Z,9.80
2018-05-16T13:06:39.290Z,7.70
2018-05-16T13:09:06.866Z,9.30
2018-05-16T13:11:35.181Z,7.60
2018-05-16T13:14:02.784Z,6.97
2018-05-16T13:16:30.492Z,8.37
2018-05-16T13:18:58.081Z,6.57
2018-05-16T13:21:25.727Z,7.20
2018-05-16T13:23:53.252Z,5.50
2018-05-16T13:26:21.173Z,5.37
2018-05-16T13:28:48.711Z,7.63
2018-05-16T13:31:17.137Z,7.10
2018-05-16T13:33:44.699Z,8.27
2018-05-16T13:36:13.381Z,6.93
2018-05-16T13:38:40.922Z,10.97
2018-05-16T13:41:08.509Z,11.80
2018-05-16T13:43:36.610Z,11.30
2018-05-16T13:46:04.179Z,11.03
2018-05-16T13:48:31.742Z,12.17
2018-05-16T13:50:59.887Z,10.00
2018-05-16T13:53:28.292Z,11.10
2018-05-16T13:55:55.810Z,9.30
2018-05-16T13:58:23.452Z,9.27
2018-05-16T14:00:51.045Z,12.03
2018-05-16T14:03:18.826Z,10.83
2018-05-16T14:05:47.236Z,8.27
2018-05-16T14:08:14.797Z,8.07
2018-05-16T14:10:42.361Z,6.57
2018-05-16T14:13:11.389Z,6.20
2018-05-16T14:15:38.944Z,6.27
2018-05-16T14:18:06.533Z,6.27
2018-05-16T14:20:34.135Z,6.63
2018-05-16T14:23:01.715Z,5.63
2018-05-16T14:25:29.266Z,5.00
2018-05-16T14:27:56.885Z,5.83
2018-05-16T14:30:24.447Z,4.07
2018-05-16T14:32:52.002Z,3.70
2018-05-16T14:35:19.633Z,4.50
2018-05-16T14:37:47.187Z,4.43
2018-05-16T14:40:14.760Z,3.90
2018-05-16T14:42:42.477Z,4.80
2018-05-16T14:45:09.972Z,7.60
2018-05-16T14:47:37.529Z,5.63
2018-05-16T14:50:05.393Z,7.93
2018-05-16T14:52:32.957Z,5.97
2018-05-16T14:55:00.517Z,5.00
2018-05-16T14:57:28.706Z,6.80
2018-05-16T14:59:56.275Z,7.45
2018-05-16T15:02:23.836Z,8.07
2018-05-16T15:04:51.450Z,8.33
2018-05-16T15:07:19.780Z,7.57
2018-05-16T15:09:47.336Z,8.93
2018-05-16T15:12:14.941Z,9.83
2018-05-16T15:14:42.525Z,8.87
2018-05-16T15:17:10.085Z,13.63
2018-05-16T15:19:37.703Z,13.65
2018-05-16T15:22:05.279Z,13.13
2018-05-16T15:24:32.845Z,11.77
2018-05-16T15:27:01.588Z,11.53
2018-05-16T15:29:29.149Z,12.23
2018-05-16T15:31:56.763Z,10.10
2018-05-16T15:34:25.130Z,10.90
2018-05-16T15:36:53.464Z,10.23
2018-05-16T15:39:21.021Z,10.33
2018-05-16T15:41:49.940Z,12.23
2018-05-16T15:44:17.528Z,8.97
2018-05-16T15:46:45.126Z,9.00
2018-05-16T15:49:12.721Z,10.93
2018-05-16T15:51:40.279Z,9.13
2018-05-16T15:54:07.837Z,8.27
2018-05-16T15:56:35.904Z,6.93
2018-05-16T15:59:03.464Z,6.90
2018-05-16T16:01:31.030Z,4.90
2018-05-16T16:03:59.613Z,4.80
2018-05-16T16:06:27.170Z,6.57
2018-05-16T16:08:54.730Z,5.53
2018-05-16T16:11:22.344Z,5.70
2018-05-16T16:13:50.751Z,5.72
2018-05-16T16:16:18.272Z,5.67
2018-05-16T16:18:48.076Z,5.20
2018-05-16T16:21:15.604Z,6.10
2018-05-16T16:23:43.165Z,5.37
2018-05-16T16:26:11.662Z,4.63
2018-05-16T16:28:39.213Z,4.40
2018-05-16T16:31:06.781Z,5.77
2018-05-16T16:33:34.658Z,7.67
2018-05-16T16:36:02.678Z,6.13
2018-05-16T16:38:34.468Z,6.50
2018-05-16T16:41:00.869Z,8.53
2018-05-16T16:43:28.433Z,7.30
2018-05-16T16:45:55.984Z,7.63
2018-05-16T16:48:24.718Z,7.33
2018-05-16T16:50:52.591Z,5.77
2018-05-16T16:53:20.146Z,6.63
2018-05-16T16:55:48.131Z,5.83
2018-05-16T16:58:15.717Z,6.63
2018-05-16T17:00:43.291Z,7.23
2018-05-16T17:03:10.910Z,6.20
2018-05-16T17:05:38.464Z,6.67
2018-05-16T17:08:06.044Z,10.07
2018-05-16T17:10:33.671Z,7.50
2018-05-16T17:13:01.226Z,8.10
2018-05-16T17:15:28.775Z,6.30
2018-05-16T17:17:56.395Z,6.80
2018-05-16T17:20:24.007Z,8.20
2018-05-16T17:22:54.818Z,9.17
2018-05-16T17:25:23.185Z,6.20
2018-05-16T17:27:50.739Z,6.27
2018-05-16T17:30:18.400Z,8.77
2018-05-16T17:32:46.289Z,5.83
2018-05-16T17:35:13.846Z,6.07
2018-05-16T17:37:42.168Z,6.93
2018-05-16T17:40:09.777Z,7.63
2018-05-16T17:42:37.335Z,5.97
2018-05-16T17:45:04.892Z,5.50
2018-05-16T17:47:32.552Z,5.80
2018-05-16T17:50:00.120Z,5.18
2018-05-16T17:52:27.676Z,5.90
2018-05-16T17:54:55.831Z,6.43
2018-05-16T17:57:23.400Z,6.37
2018-05-16T17:59:50.960Z,9.27
2018-05-16T18:02:19.418Z,5.63
2018-05-16T18:04:46.984Z,5.75
2018-05-16T18:07:14.541Z,4.97
2018-05-16T18:09:42.166Z,4.43
2018-05-16T18:12:10.497Z,5.57
2018-05-16T18:14:40.812Z,5.03
2018-05-16T18:17:20.472Z,7.27
2018-05-16T18:19:48.032Z,6.40
2018-05-16T18:22:16.595Z,11.00
2018-05-16T18:24:44.201Z,5.20
2018-05-16T18:27:11.781Z,10.37
2018-05-16T18:29:39.341Z,6.78
2018-05-16T18:32:08.910Z,6.97
2018-05-16T18:34:36.488Z,5.77
2018-05-16T18:37:04.078Z,7.43
2018-05-16T18:39:31.684Z,5.37
2018-05-16T18:41:59.253Z,7.07
2018-05-16T18:44:26.810Z,7.20
2018-05-16T18:46:54.426Z,7.80
2018-05-16T18:49:22.805Z,8.03
2018-05-16T18:51:50.317Z,8.77
2018-05-16T18:54:17.931Z,7.67
2018-05-16T18:56:46.263Z,9.07
2018-05-16T18:59:13.825Z,9.10
2018-05-16T19:01:41.439Z,11.43
2018-05-16T19:04:08.999Z,8.80
2018-05-16T19:06:36.552Z,6.77
2018-05-16T19:09:07.905Z,6.60
2018-05-16T19:11:36.240Z,10.07
2018-05-16T19:14:03.798Z,8.23
2018-05-16T19:16:32.280Z,10.03
2018-05-16T19:18:59.842Z,8.60
2018-05-16T19:21:27.397Z,8.30
2018-05-16T19:23:55.027Z,7.83
2018-05-16T19:26:22.590Z,9.23
2018-05-16T19:28:50.167Z,10.17
2018-05-16T19:31:17.791Z,7.23
2018-05-16T19:33:45.348Z,8.03
2018-05-16T19:36:12.904Z,7.10
2018-05-16T19:38:41.648Z,7.20
2018-05-16T19:41:09.214Z,7.17
2018-05-16T19:43:36.785Z,7.70
2018-05-16T19:46:04.472Z,10.63
2018-05-16T19:48:31.965Z,7.40
2018-05-16T19:50:59.552Z,6.90
2018-05-16T19:53:27.189Z,7.93
2018-05-16T19:55:54.741Z,9.63
2018-05-16T19:58:22.311Z,9.77
2018-05-16T20:00:49.962Z,9.70
2018-05-16T20:03:17.555Z,8.10
2018-05-16T20:05:45.044Z,8.60
2018-05-16T20:08:12.771Z,9.47
2018-05-16T20:10:40.216Z,8.90
2018-05-16T20:13:07.787Z,7.57
2018-05-16T20:15:35.434Z,11.80
2018-05-16T20:18:02.992Z,8.70
2018-05-16T20:20:30.572Z,8.27
2018-05-16T20:22:58.177Z,7.67
2018-05-16T20:25:25.742Z,7.00
2018-05-16T20:27:53.301Z,8.10
2018-05-16T20:30:20.933Z,6.53
2018-05-16T20:32:48.493Z,7.33
2018-05-16T20:35:16.045Z,7.77
2018-05-16T20:37:44.451Z,6.60
2018-05-16T20:40:12.016Z,8.00
2018-05-16T20:42:39.610Z,8.27
2018-05-16T20:45:07.226Z,7.63
2018-05-16T20:47:34.792Z,8.52
2018-05-16T20:50:02.369Z,8.87
2018-05-16T20:52:29.967Z,8.07
2018-05-16T20:54:58.305Z,9.80
2018-05-16T20:57:25.861Z,8.17
2018-05-16T20:59:53.462Z,8.07
2018-05-16T21:02:21.794Z,6.07
2018-05-16T21:04:49.350Z,6.13
2018-05-16T21:07:16.949Z,10.07
2018-05-16T21:09:44.499Z,6.77
2018-05-16T21:12:12.056Z,7.50
2018-05-16T21:14:39.655Z,7.80
2018-05-16T21:17:07.991Z,6.07
2018-05-16T21:19:35.573Z,9.03
2018-05-16T21:22:03.179Z,8.70
2018-05-16T21:24:30.742Z,9.70
2018-05-16T21:26:58.300Z,9.23
2018-05-16T21:29:26.417Z,8.50
2018-05-16T21:31:53.990Z,7.23
2018-05-16T21:34:21.563Z,10.10
2018-05-16T21:36:49.160Z,6.97
2018-05-16T21:39:16.716Z,9.17
2018-05-16T21:41:44.377Z,7.07
2018-05-16T21:44:12.033Z,9.03
2018-05-16T21:46:39.596Z,6.53
2018-05-16T21:49:07.160Z,7.57
2018-05-16T21:51:35.026Z,6.30
2018-05-16T21:54:03.236Z,6.53
2018-05-16T21:56:30.818Z,8.57
2018-05-16T21:58:58.424Z,7.07
2018-05-16T22:01:25.981Z,8.88
2018-05-16T22:03:54.321Z,7.70
2018-05-16T22:06:21.919Z,8.90
2018-05-16T22:08:50.236Z,8.50
2018-05-16T22:11:17.798Z,11.70
2018-05-16T22:13:45.394Z,8.00
2018-05-16T22:16:12.962Z,9.60
2018-05-16T22:18:40.547Z,12.13
2018-05-16T22:21:09.309Z,10.80
2018-05-16T22:23:36.874Z,11.10
2018-05-16T22:26:04.435Z,8.90
2018-05-16T22:28:32.023Z,9.43
2018-05-16T22:31:17.484Z,9.93
2018-05-16T22:34:03.510Z,9.87
2018-05-16T22:36:48.790Z,8.87
2018-05-16T22:39:35.005Z,8.90
2018-05-16T22:42:20.495Z,12.63
2018-05-16T22:44:53.591Z,8.50
2018-05-16T22:47:21.156Z,9.60
2018-05-16T22:49:48.748Z,10.00
2018-05-16T22:52:17.140Z,10.10
2018-05-16T22:54:44.699Z,10.33
2018-05-16T22:57:12.264Z,10.47
2018-05-16T22:59:40.643Z,10.10
2018-05-16T23:02:08.977Z,9.57
2018-05-16T23:04:36.550Z,13.20
2018-05-16T23:07:04.147Z,12.60
2018-05-16T23:09:32.480Z,13.52
2018-05-16T23:12:00.048Z,11.20
2018-05-16T23:14:27.666Z,12.60
2018-05-16T23:16:55.259Z,12.17
2018-05-16T23:19:22.786Z,13.20
2018-05-16T23:21:50.787Z,10.97
2018-05-16T23:24:18.342Z,12.27
2018-05-16T23:26:45.902Z,11.23
2018-05-16T23:29:13.498Z,13.83
2018-05-16T23:31:41.057Z,10.70
2018-05-16T23:34:08.612Z,11.07
2018-05-16T23:36:36.209Z,11.73
2018-05-16T23:39:07.075Z,12.37
2018-05-16T23:41:34.633Z,14.73
2018-05-16T23:44:02.288Z,12.63
2018-05-16T23:46:29.853Z,15.27
2018-05-16T23:48:57.422Z,13.30
2018-05-16T23:51:25.016Z,15.13
2018-05-16T23:53:52.587Z,16.60
2018-05-16T23:56:20.160Z,22.95
2018-05-16T23:58:47.762Z,22.55
